createdAt,value
2022-09-28T00:00:53.085Z,0.60
2022-09-28T00:03:33.168Z,3.20
2022-09-28T00:06:24.046Z,0.45
2022-09-28T00:09:05.173Z,0.00
2022-09-28T00:11:53.061Z,1.05
2022-09-28T00:14:33.203Z,0.80
2022-09-28T00:17:21.089Z,22.48
2022-09-28T00:20:05.298Z,11.88
2022-09-28T00:22:52.065Z,1.52
2022-09-28T00:25:39.025Z,1.25
2022-09-28T00:28:26.152Z,4.07
2022-09-28T00:31:07.065Z,0.90
2022-09-28T00:33:51.929Z,0.13
2022-09-28T00:36:40.056Z,2.63
2022-09-28T00:39:27.036Z,0.55
2022-09-28T00:42:07.166Z,2.20
2022-09-28T00:44:58.017Z,2.30
2022-09-28T00:47:56.006Z,1.85
2022-09-28T00:50:38.679Z,0.82
2022-09-28T00:53:32.045Z,2.75
2022-09-28T00:56:19.054Z,0.40
2022-09-28T00:59:06.992Z,0.45
2022-09-28T01:01:53.989Z,0.75
2022-09-28T01:04:42.027Z,2.53
2022-09-28T01:07:22.900Z,1.38
2022-09-28T01:10:10.018Z,4.72
2022-09-28T01:12:56.966Z,1.30
2022-09-28T01:15:49.985Z,0.63
2022-09-28T01:19:08.083Z,1.42
2022-09-28T01:22:43.005Z,1.98
2022-09-28T01:25:35.963Z,1.42
2022-09-28T01:28:32.988Z,2.15
2022-09-28T01:31:22.987Z,2.55
2022-09-28T01:34:31.042Z,2.10
2022-09-28T01:37:21.954Z,1.50
2022-09-28T01:40:05.103Z,1.17
2022-09-28T01:42:54.972Z,1.13
2022-09-28T01:45:47.979Z,1.80
2022-09-28T01:48:46.958Z,1.63
2022-09-28T01:51:57.937Z,1.33
2022-09-28T01:55:09.479Z,1.45
2022-09-28T01:58:01.912Z,0.57
2022-09-28T02:00:47.079Z,2.00
2022-09-28T02:03:42.941Z,0.90
2022-09-28T02:06:31.994Z,1.55
2022-09-28T02:09:29.465Z,0.70
2022-09-28T02:12:31.904Z,0.28
2022-09-28T02:15:23.989Z,0.45
2022-09-28T02:18:12.951Z,4.25
2022-09-28T02:21:05.983Z,0.30
2022-09-28T02:24:07.916Z,1.13
2022-09-28T02:27:03.919Z,1.75
2022-09-28T02:29:50.921Z,1.08
2022-09-28T02:32:32.988Z,0.52
2022-09-28T02:35:22.926Z,0.00
2022-09-28T02:38:04.053Z,0.52
2022-09-28T02:41:02.944Z,1.48
2022-09-28T02:44:16.950Z,0.38
2022-09-28T02:47:20.862Z,0.68
2022-09-28T02:50:08.884Z,0.82
2022-09-28T02:53:04.859Z,2.40
2022-09-28T02:56:03.875Z,0.47
2022-09-28T02:58:48.026Z,1.45
2022-09-28T03:02:02.947Z,1.98
2022-09-28T03:04:57.857Z,0.95
2022-09-28T03:26:01.795Z,2.75
2022-09-28T03:28:42.295Z,1.73
2022-09-28T03:31:34.834Z,2.80
2022-09-28T03:34:21.799Z,1.08
2022-09-28T03:37:08.841Z,0.65
2022-09-28T03:39:55.804Z,0.55
2022-09-28T03:42:37.811Z,0.85
2022-09-28T03:45:24.871Z,1.13
2022-09-28T03:48:04.982Z,1.35
2022-09-28T03:50:51.785Z,0.70
2022-09-28T03:53:39.810Z,0.77
2022-09-28T03:56:20.224Z,1.27
2022-09-28T03:59:06.812Z,1.30
2022-09-28T04:01:56.796Z,3.72
2022-09-28T04:04:37.883Z,1.05
2022-09-28T04:07:28.975Z,0.50
2022-09-28T04:10:10.999Z,0.80
2022-09-28T04:13:01.766Z,1.65
2022-09-28T04:15:41.960Z,3.60
2022-09-28T04:18:29.772Z,3.42
2022-09-28T04:21:28.856Z,6.35
2022-09-28T04:24:24.751Z,1.90
2022-09-28T04:27:23.820Z,4.10
2022-09-28T04:30:10.750Z,0.35
2022-09-28T04:32:54.846Z,4.05
2022-09-28T04:35:43.775Z,0.17
2022-09-28T04:38:48.369Z,1.60
2022-09-28T04:41:30.745Z,1.52
2022-09-28T04:44:17.688Z,5.47
2022-09-28T04:47:10.713Z,0.25
2022-09-28T04:50:25.717Z,5.05
2022-09-28T04:53:34.727Z,1.50
2022-09-28T04:56:18.833Z,2.83
2022-09-28T04:59:05.716Z,3.13
2022-09-28T05:01:47.600Z,5.40
2022-09-28T05:04:34.696Z,4.05
2022-09-28T05:07:49.737Z,8.45
2022-09-28T05:10:30.052Z,7.85
2022-09-28T05:13:16.735Z,7.30
2022-09-28T05:16:05.854Z,6.00
2022-09-28T05:19:03.708Z,7.60
2022-09-28T05:21:48.827Z,4.75
2022-09-28T05:24:35.692Z,5.13
2022-09-28T05:27:22.685Z,3.45
2022-09-28T05:30:12.701Z,2.47
2022-09-28T05:33:28.677Z,0.77
2022-09-28T05:36:20.105Z,6.22
2022-09-28T05:39:06.689Z,0.63
2022-09-28T05:41:47.043Z,2.10
2022-09-28T05:44:34.858Z,13.15
2022-09-28T05:47:15.040Z,14.10
2022-09-28T05:50:01.679Z,15.85
2022-09-28T05:52:43.345Z,16.85
2022-09-28T05:55:29.651Z,14.00
2022-09-28T05:58:10.081Z,19.10
2022-09-28T06:00:57.700Z,18.25
2022-09-28T06:03:38.057Z,16.83
2022-09-28T06:06:24.683Z,17.65
2022-09-28T06:09:05.056Z,19.30
2022-09-28T06:12:12.840Z,15.57
2022-09-28T06:15:07.638Z,14.48
2022-09-28T06:17:54.632Z,14.68
2022-09-28T06:21:07.663Z,14.43
2022-09-28T06:23:50.733Z,19.98
2022-09-28T06:26:37.640Z,17.88
2022-09-28T06:29:19.762Z,15.80
2022-09-28T06:32:06.658Z,15.50
2022-09-28T06:34:50.732Z,19.67
2022-09-28T06:37:40.637Z,15.45
2022-09-28T06:40:20.888Z,19.95
2022-09-28T06:43:21.600Z,14.50
2022-09-28T06:46:21.344Z,18.52
2022-09-28T06:49:26.657Z,16.77
2022-09-28T06:52:31.610Z,10.90
2022-09-28T06:55:19.459Z,8.82
2022-09-28T06:58:14.611Z,7.43
2022-09-28T07:01:00.488Z,11.45
2022-09-28T07:03:55.945Z,8.00
2022-09-28T07:06:54.394Z,8.82
2022-09-28T07:10:07.595Z,11.45
2022-09-28T07:13:11.969Z,7.63
2022-09-28T07:16:08.636Z,5.78
2022-09-28T07:18:55.580Z,6.90
2022-09-28T07:21:36.776Z,8.25
2022-09-28T07:24:23.809Z,7.10
2022-09-28T07:27:28.767Z,5.13
2022-09-28T07:30:27.942Z,8.27
2022-09-28T07:33:30.343Z,6.18
2022-09-28T07:36:29.781Z,8.15
2022-09-28T07:39:09.662Z,6.25
2022-09-28T07:41:59.701Z,5.65
2022-09-28T07:44:50.562Z,9.48
2022-09-28T07:47:38.507Z,5.80
2022-09-28T07:50:26.673Z,10.50
2022-09-28T07:53:29.540Z,6.60
2022-09-28T07:56:38.681Z,5.60
2022-09-28T07:59:50.537Z,5.85
2022-09-28T08:02:48.666Z,13.40
2022-09-28T08:05:42.536Z,7.65
2022-09-28T08:08:29.541Z,6.75
2022-09-28T08:11:13.532Z,4.75
2022-09-28T08:14:18.654Z,4.65
2022-09-28T08:17:07.261Z,8.45
2022-09-28T08:20:21.795Z,6.70
2022-09-28T08:23:13.537Z,7.75
2022-09-28T08:26:00.620Z,7.03
2022-09-28T08:28:42.536Z,5.35
2022-09-28T08:32:01.364Z,4.63
2022-09-28T08:34:53.551Z,6.88
2022-09-28T08:37:58.127Z,2.72
2022-09-28T08:41:26.508Z,6.22
2022-09-28T08:44:30.580Z,4.60
2022-09-28T08:48:15.972Z,4.28
2022-09-28T08:51:29.501Z,2.67
2022-09-28T08:54:58.592Z,4.25
2022-09-28T08:57:54.522Z,5.22
2022-09-28T09:00:44.608Z,3.80
2022-09-28T09:03:46.464Z,4.03
2022-09-28T09:10:22.476Z,8.75
2022-09-28T09:13:06.554Z,3.97
2022-09-28T09:16:30.566Z,5.32
2022-09-28T09:19:49.601Z,4.68
2022-09-28T09:23:12.457Z,4.53
2022-09-28T09:26:13.643Z,6.25
2022-09-28T09:29:22.315Z,4.85
2022-09-28T09:32:33.444Z,4.22
2022-09-28T09:35:26.889Z,4.35
2022-09-28T09:38:48.476Z,6.15
2022-09-28T09:42:43.461Z,4.18
2022-09-28T09:46:06.888Z,4.15
2022-09-28T09:49:41.479Z,4.95
2022-09-28T09:52:36.995Z,4.70
2022-09-28T09:55:34.540Z,2.50
2022-09-28T09:58:54.452Z,3.20
2022-09-28T10:01:48.508Z,3.60
2022-09-28T10:04:47.577Z,3.92
2022-09-28T10:07:54.452Z,3.17
2022-09-28T10:10:42.570Z,3.83
2022-09-28T10:13:31.447Z,2.38
2022-09-28T10:16:32.488Z,4.65
2022-09-28T10:19:28.456Z,2.42
2022-09-28T10:22:40.420Z,2.05
2022-09-28T10:25:38.420Z,4.05
2022-09-28T10:28:36.483Z,3.83
2022-09-28T10:31:49.449Z,3.13
2022-09-28T10:34:38.430Z,4.95
2022-09-28T10:37:24.563Z,2.05
2022-09-28T10:44:12.431Z,3.33
2022-09-28T10:47:16.416Z,3.45
2022-09-28T10:49:58.574Z,2.70
2022-09-28T10:52:52.446Z,4.47
2022-09-28T10:56:05.477Z,4.57
2022-09-28T11:01:54.391Z,2.35
2022-09-28T11:04:47.397Z,5.63
2022-09-28T11:07:33.371Z,6.40
2022-09-28T11:10:28.395Z,4.28
2022-09-28T11:13:18.486Z,3.20
2022-09-28T11:16:15.411Z,4.03
2022-09-28T11:18:55.502Z,3.17
2022-09-28T11:21:50.374Z,3.28
2022-09-28T11:24:39.463Z,3.53
2022-09-28T11:27:34.368Z,4.45
2022-09-28T11:30:29.536Z,4.05
2022-09-28T11:33:55.342Z,4.53
2022-09-28T11:37:38.353Z,5.35
2022-09-28T11:41:10.338Z,6.32
2022-09-28T11:44:33.366Z,7.18
2022-09-28T11:48:02.345Z,7.50
2022-09-28T11:50:53.434Z,3.08
2022-09-28T11:53:50.345Z,5.05
2022-09-28T11:56:52.354Z,2.38
2022-09-28T11:59:35.664Z,5.55
2022-09-28T12:02:26.386Z,5.35
2022-09-28T12:05:32.426Z,3.75
2022-09-28T12:08:25.326Z,22.17
2022-09-28T12:11:41.358Z,9.23
2022-09-28T12:14:36.575Z,6.95
2022-09-28T12:17:35.478Z,5.50
2022-09-28T12:20:31.339Z,3.25
2022-09-28T12:23:25.892Z,5.60
2022-09-28T12:26:27.289Z,4.90
2022-09-28T12:29:11.487Z,4.72
2022-09-28T12:32:05.302Z,4.38
2022-09-28T12:34:48.372Z,3.40
2022-09-28T12:38:00.323Z,3.53
2022-09-28T12:41:26.268Z,4.38
2022-09-28T12:44:36.312Z,4.10
2022-09-28T12:47:43.274Z,6.03
2022-09-28T12:50:39.066Z,4.45
2022-09-28T12:53:37.261Z,6.32
2022-09-28T12:56:50.290Z,5.55
2022-09-28T12:59:46.827Z,4.38
2022-09-28T13:02:45.301Z,4.90
2022-09-28T13:06:25.266Z,5.82
2022-09-28T13:09:17.232Z,6.70
2022-09-28T13:12:23.245Z,3.78
2022-09-28T13:15:41.344Z,4.53
2022-09-28T13:18:51.270Z,5.72
2022-09-28T13:22:01.270Z,3.92
2022-09-28T13:24:53.249Z,6.63
2022-09-28T13:27:47.277Z,4.40
2022-09-28T13:30:27.708Z,6.40
2022-09-28T13:33:17.209Z,6.63
2022-09-28T13:35:57.358Z,6.10
2022-09-28T13:38:54.193Z,8.07
2022-09-28T13:41:55.983Z,7.53
2022-09-28T13:45:13.207Z,11.13
2022-09-28T13:48:18.650Z,11.82
2022-09-28T13:51:29.214Z,9.57
2022-09-28T13:54:23.379Z,8.90
2022-09-28T13:57:53.196Z,9.93
2022-09-28T14:00:38.364Z,8.65
2022-09-28T14:03:49.183Z,8.68
2022-09-28T14:06:49.439Z,9.75
2022-09-28T14:09:56.189Z,8.55
2022-09-28T14:12:51.600Z,13.13
2022-09-28T14:15:44.227Z,7.32
2022-09-28T14:18:38.294Z,8.48
2022-09-28T14:22:02.183Z,8.18
2022-09-28T14:24:54.182Z,11.32
2022-09-28T14:27:37.794Z,9.23
2022-09-28T14:30:27.174Z,11.32
2022-09-28T14:33:19.379Z,9.30
2022-09-28T14:36:20.138Z,9.05
2022-09-28T14:39:19.432Z,7.53
2022-09-28T14:42:06.171Z,7.38
2022-09-28T14:45:05.394Z,8.13
2022-09-28T14:47:55.152Z,8.50
2022-09-28T14:50:42.114Z,10.02
2022-09-28T14:53:31.245Z,7.85
2022-09-28T14:56:21.114Z,9.40
2022-09-28T14:59:04.250Z,8.45
2022-09-28T15:02:15.159Z,7.70
2022-09-28T15:05:16.267Z,8.13
2022-09-28T15:08:04.140Z,6.85
2022-09-28T15:10:47.254Z,9.23
2022-09-28T15:27:56.740Z,9.05
2022-09-28T15:30:37.468Z,10.27
2022-09-28T15:34:12.751Z,8.82
2022-09-28T15:37:02.726Z,8.15
2022-09-28T15:39:42.828Z,9.25
2022-09-28T15:42:29.751Z,10.05
2022-09-28T15:45:18.710Z,8.57
2022-09-28T15:48:24.951Z,15.13
2022-09-28T15:51:21.722Z,11.95
2022-09-28T15:54:04.617Z,9.95
2022-09-28T15:57:11.716Z,9.15
2022-09-28T15:59:59.267Z,11.02
2022-09-28T16:02:52.726Z,13.23
2022-09-28T16:05:57.673Z,11.10
2022-09-28T16:08:44.705Z,11.98
2022-09-28T16:11:44.689Z,14.75
2022-09-28T16:14:27.798Z,16.85
2022-09-28T16:17:24.703Z,12.82
2022-09-28T16:20:07.763Z,9.95
2022-09-28T16:22:55.688Z,12.07
2022-09-28T16:25:43.691Z,10.65
2022-09-28T16:28:29.536Z,14.23
2022-09-28T16:31:26.689Z,12.60
2022-09-28T16:34:13.613Z,17.83
2022-09-28T16:37:02.657Z,13.60
2022-09-28T16:39:43.027Z,13.45
2022-09-28T16:42:29.658Z,11.23
2022-09-28T16:45:18.458Z,14.98
2022-09-28T16:48:08.669Z,18.25
2022-09-28T16:50:49.040Z,15.27
2022-09-28T16:53:53.650Z,13.52
2022-09-28T16:56:36.359Z,10.75
2022-09-28T16:59:23.614Z,14.75
2022-09-28T17:02:47.304Z,16.52
2022-09-28T17:05:27.713Z,17.17
2022-09-28T17:08:19.598Z,12.15
2022-09-28T17:11:18.151Z,15.95
2022-09-28T17:14:03.095Z,13.02
2022-09-28T17:17:07.367Z,11.85
2022-09-28T17:19:56.613Z,17.98
2022-09-28T17:22:43.633Z,16.05
2022-09-28T17:25:39.575Z,19.98
2022-09-28T17:28:38.615Z,14.73
2022-09-28T17:31:22.887Z,17.85
2022-09-28T17:34:09.622Z,14.25
2022-09-28T17:36:57.619Z,15.68
2022-09-28T17:39:37.977Z,13.25
2022-09-28T17:42:17.589Z,16.48
2022-09-28T17:45:04.597Z,14.70
2022-09-28T17:47:45.055Z,14.45
2022-09-28T17:50:33.607Z,19.45
2022-09-28T17:53:14.555Z,19.85
2022-09-28T17:56:01.578Z,19.80
2022-09-28T17:58:41.985Z,17.60
2022-09-28T18:01:28.617Z,15.88
2022-09-28T18:04:46.940Z,12.90
2022-09-28T18:07:18.658Z,17.92
2022-09-28T18:10:05.586Z,18.15
2022-09-28T18:12:45.721Z,19.88
2022-09-28T18:15:32.610Z,15.23
2022-09-28T18:18:19.552Z,15.63
2022-09-28T18:21:01.024Z,16.83
2022-09-28T18:23:51.556Z,17.83
2022-09-28T18:26:38.524Z,18.30
2022-09-28T18:29:18.666Z,17.48
2022-09-28T18:32:05.572Z,20.17
2022-09-28T18:34:45.805Z,22.23
2022-09-28T18:37:32.517Z,26.88
2022-09-28T18:40:14.718Z,17.00
2022-09-28T18:43:01.513Z,17.45
2022-09-28T18:45:42.620Z,14.00
2022-09-28T18:48:31.505Z,18.00
2022-09-28T18:51:15.662Z,29.83
2022-09-28T18:54:02.528Z,14.85
2022-09-28T18:56:49.553Z,14.40
2022-09-28T18:59:36.715Z,19.98
2022-09-28T19:02:19.632Z,13.85
2022-09-28T19:04:59.884Z,11.43
2022-09-28T19:07:47.509Z,9.88
2022-09-28T19:10:27.978Z,11.23
2022-09-28T19:13:14.495Z,14.07
2022-09-28T19:16:01.536Z,12.02
2022-09-28T19:18:43.814Z,12.50
2022-09-28T19:21:31.475Z,14.15
2022-09-28T19:24:18.517Z,11.98
2022-09-28T19:27:05.658Z,11.15
2022-09-28T19:30:08.495Z,17.25
2022-09-28T19:32:52.754Z,14.73
2022-09-28T19:37:08.096Z,12.88
2022-09-28T19:40:26.312Z,18.98
2022-09-28T19:43:27.475Z,14.38
2022-09-28T19:46:16.507Z,14.45
2022-09-28T19:49:03.469Z,14.90
2022-09-28T19:52:01.926Z,19.38
2022-09-28T19:54:51.463Z,13.15
2022-09-28T19:57:32.690Z,16.48
2022-09-28T20:00:20.452Z,15.40
2022-09-28T20:03:00.961Z,13.10
2022-09-28T20:05:48.455Z,16.23
2022-09-28T20:08:32.248Z,14.27
2022-09-28T20:11:19.470Z,16.60
2022-09-28T20:14:00.282Z,17.90
2022-09-28T20:16:49.534Z,15.93
2022-09-28T20:19:36.408Z,17.50
2022-09-28T20:22:25.502Z,14.55
2022-09-28T20:25:06.338Z,13.93
2022-09-28T20:27:53.405Z,14.02
2022-09-28T20:30:33.785Z,18.85
2022-09-28T20:33:28.700Z,15.90
2022-09-28T20:36:11.779Z,15.13
2022-09-28T20:39:01.389Z,15.70
2022-09-28T20:41:48.429Z,15.52
2022-09-28T20:44:28.527Z,17.60
2022-09-28T20:47:15.366Z,12.18
2022-09-28T20:50:02.408Z,13.27
2022-09-28T20:52:42.772Z,13.18
2022-09-28T20:55:29.375Z,13.35
2022-09-28T20:58:09.769Z,13.80
2022-09-28T21:00:56.337Z,14.93
2022-09-28T21:03:38.191Z,12.80
2022-09-28T21:06:25.356Z,8.27
2022-09-28T21:09:13.355Z,14.63
2022-09-28T21:11:53.473Z,15.95
2022-09-28T21:14:33.373Z,11.48
2022-09-28T21:17:13.774Z,15.43
2022-09-28T21:20:00.375Z,11.60
2022-09-28T21:22:40.734Z,16.77
2022-09-28T21:25:27.353Z,17.80
2022-09-28T21:28:21.374Z,21.45
2022-09-28T21:31:04.596Z,20.88
2022-09-28T21:33:51.357Z,14.50
2022-09-28T21:36:38.362Z,21.60
2022-09-28T21:39:25.349Z,21.10
2022-09-28T21:42:05.898Z,21.20
2022-09-28T21:44:55.291Z,23.02
2022-09-28T21:47:37.811Z,23.70
2022-09-28T21:50:24.312Z,20.90
2022-09-28T21:53:04.677Z,15.98
2022-09-28T21:55:52.331Z,16.02
2022-09-28T21:58:35.418Z,17.98
2022-09-28T22:01:49.377Z,16.27
2022-09-28T22:04:29.683Z,16.38
2022-09-28T22:07:16.319Z,16.08
2022-09-28T22:10:03.305Z,17.80
2022-09-28T22:12:43.490Z,21.90
2022-09-28T22:15:30.311Z,19.92
2022-09-28T22:18:17.319Z,19.17
2022-09-28T22:21:02.901Z,18.95
2022-09-28T22:23:50.300Z,17.45
2022-09-28T22:26:38.296Z,19.30
2022-09-28T22:29:18.375Z,19.27
2022-09-28T22:32:08.251Z,23.30
2022-09-28T22:34:48.386Z,19.90
2022-09-28T22:37:35.278Z,16.85
2022-09-28T22:40:16.638Z,18.95
2022-09-28T22:43:03.269Z,23.15
2022-09-28T22:45:50.302Z,20.65
2022-09-28T22:48:37.275Z,25.83
2022-09-28T22:51:17.379Z,24.80
2022-09-28T22:54:04.296Z,20.30
2022-09-28T22:56:44.349Z,19.50
2022-09-28T22:59:31.282Z,18.75
2022-09-28T23:02:11.356Z,19.70
2022-09-28T23:05:05.280Z,20.92
2022-09-28T23:07:53.504Z,23.88
2022-09-28T23:10:40.231Z,20.45
2022-09-28T23:13:21.324Z,27.30
2022-09-28T23:16:11.240Z,21.50
2022-09-28T23:18:58.251Z,23.30
2022-09-28T23:21:38.576Z,23.02
2022-09-28T23:24:25.272Z,17.65
2022-09-28T23:27:19.204Z,22.40
2022-09-28T23:30:06.180Z,22.38
2022-09-28T23:32:46.578Z,20.52
2022-09-28T23:35:33.172Z,22.65
2022-09-28T23:38:18.004Z,18.83
2022-09-28T23:41:05.212Z,22.83
2022-09-28T23:43:45.276Z,20.20
2022-09-28T23:46:32.261Z,21.92
2022-09-28T23:49:12.555Z,20.73
2022-09-28T23:51:59.198Z,18.65
2022-09-28T23:54:39.813Z,17.95
2022-09-28T23:57:26.216Z,19.25
